createdAt,value
2023-03-19T00:00:37.475Z,58.30
2023-03-19T00:03:05.765Z,58.30
2023-03-19T00:05:35.802Z,58.20
2023-03-19T00:08:04.035Z,58.30
2023-03-19T00:10:32.313Z,58.40
2023-03-19T00:13:00.691Z,58.50
2023-03-19T00:15:28.813Z,58.50
2023-03-19T00:17:57.578Z,58.70
2023-03-19T00:20:26.202Z,58.80
2023-03-19T00:22:56.277Z,58.90
2023-03-19T00:25:24.794Z,59.20
2023-03-19T00:27:55.125Z,59.50
2023-03-19T00:30:24.204Z,59.40
2023-03-19T00:32:52.506Z,59.50
2023-03-19T00:35:20.746Z,59.50
2023-03-19T00:37:48.884Z,59.10
2023-03-19T00:40:18.653Z,58.90
2023-03-19T00:42:47.002Z,59.10
2023-03-19T00:45:15.173Z,59.00
2023-03-19T00:47:43.875Z,59.20
2023-03-19T00:50:12.834Z,59.30
2023-03-19T00:52:41.222Z,59.20
2023-03-19T00:55:10.391Z,59.30
2023-03-19T00:57:40.103Z,59.40
2023-03-19T01:00:10.857Z,59.40
2023-03-19T01:02:41.711Z,59.50
2023-03-19T01:05:11.214Z,59.40
2023-03-19T01:07:46.691Z,59.30
2023-03-19T01:12:59.769Z,59.40
2023-03-19T01:15:28.188Z,59.50
2023-03-19T01:18:06.745Z,59.10
2023-03-19T01:20:36.366Z,58.60
2023-03-19T01:23:06.836Z,58.50
2023-03-19T01:25:44.556Z,58.80
2023-03-19T01:28:19.018Z,58.90
2023-03-19T01:30:49.339Z,58.70
2023-03-19T01:33:20.867Z,58.30
2023-03-19T01:35:49.301Z,58.10
2023-03-19T01:38:20.700Z,58.00
2023-03-19T01:40:52.483Z,57.90
2023-03-19T01:43:26.145Z,57.70
2023-03-19T01:45:58.476Z,57.40
2023-03-19T01:48:36.065Z,57.30
2023-03-19T01:51:08.058Z,57.40
2023-03-19T01:53:39.421Z,57.40
2023-03-19T01:56:14.577Z,57.60
2023-03-19T01:58:55.707Z,57.90
2023-03-19T02:01:25.370Z,58.20
2023-03-19T02:03:57.417Z,58.30
2023-03-19T02:06:30.581Z,58.30
2023-03-19T02:09:01.195Z,58.10
2023-03-19T02:11:29.553Z,57.80
2023-03-19T02:14:01.885Z,57.70
2023-03-19T02:16:32.346Z,57.70
2023-03-19T02:19:01.468Z,57.80
2023-03-19T02:21:38.448Z,57.90
2023-03-19T02:24:13.785Z,57.80
2023-03-19T02:26:45.897Z,58.10
2023-03-19T02:29:15.875Z,58.10
2023-03-19T02:31:44.311Z,58.00
2023-03-19T02:34:40.213Z,58.20
2023-03-19T02:37:18.204Z,58.50
2023-03-19T02:39:53.113Z,58.50
2023-03-19T02:42:28.015Z,58.30
2023-03-19T02:44:56.521Z,58.50
2023-03-19T02:47:25.514Z,59.00
2023-03-19T02:49:57.234Z,59.20
2023-03-19T02:52:26.859Z,59.50
2023-03-19T02:54:58.496Z,59.70
2023-03-19T02:57:43.997Z,60.00
2023-03-19T03:00:14.704Z,60.30
2023-03-19T03:02:46.447Z,60.20
2023-03-19T03:05:15.234Z,60.20
2023-03-19T03:07:45.026Z,60.20
2023-03-19T03:10:28.810Z,60.30
2023-03-19T03:13:01.154Z,60.30
2023-03-19T03:15:34.080Z,60.20
2023-03-19T03:18:04.525Z,60.50
2023-03-19T03:20:36.146Z,60.60
2023-03-19T03:23:05.580Z,60.70
2023-03-19T03:25:37.155Z,60.70
2023-03-19T03:28:08.090Z,60.50
2023-03-19T03:30:38.600Z,60.50
2023-03-19T03:33:12.362Z,60.60
2023-03-19T03:35:49.791Z,60.70
2023-03-19T03:38:19.628Z,60.70
2023-03-19T03:40:55.929Z,60.90
2023-03-19T03:43:27.138Z,61.00
2023-03-19T03:45:58.984Z,61.10
2023-03-19T03:48:29.955Z,61.10
2023-03-19T03:51:08.230Z,61.20
2023-03-19T03:53:37.753Z,61.20
2023-03-19T03:56:08.504Z,61.20
2023-03-19T03:58:38.120Z,61.10
2023-03-19T04:01:07.284Z,61.10
2023-03-19T04:03:35.695Z,61.10
2023-03-19T04:06:06.310Z,61.20
2023-03-19T04:08:34.452Z,61.30
2023-03-19T04:11:07.231Z,61.50
2023-03-19T04:13:36.934Z,61.70
2023-03-19T04:16:09.694Z,62.00
2023-03-19T04:18:38.542Z,62.20
2023-03-19T04:21:09.074Z,62.50
2023-03-19T04:23:46.341Z,62.60
2023-03-19T04:26:16.201Z,62.70
2023-03-19T04:28:45.793Z,62.70
2023-03-19T04:31:31.618Z,62.80
2023-03-19T04:34:03.506Z,63.00
2023-03-19T04:36:31.681Z,63.20
2023-03-19T04:39:02.250Z,63.20
2023-03-19T04:41:30.339Z,63.40
2023-03-19T04:43:58.453Z,63.50
2023-03-19T04:46:26.590Z,63.70
2023-03-19T04:48:59.909Z,63.70
2023-03-19T04:51:28.209Z,63.80
2023-03-19T04:53:58.084Z,64.00
2023-03-19T04:56:28.806Z,64.20
2023-03-19T04:58:56.956Z,64.30
2023-03-19T05:01:25.247Z,64.60
2023-03-19T05:03:53.450Z,64.70
2023-03-19T05:06:23.409Z,64.90
2023-03-19T05:08:51.584Z,65.00
2023-03-19T05:11:19.766Z,65.10
2023-03-19T05:13:49.347Z,65.30
2023-03-19T05:16:17.576Z,65.40
2023-03-19T05:18:45.820Z,65.40
2023-03-19T05:21:16.975Z,65.50
2023-03-19T05:23:52.332Z,65.60
2023-03-19T05:26:24.735Z,65.60
2023-03-19T05:28:55.468Z,65.60
2023-03-19T05:31:24.796Z,65.70
2023-03-19T05:33:55.574Z,65.80
2023-03-19T05:36:28.226Z,65.70
2023-03-19T05:38:57.802Z,66.00
2023-03-19T05:41:26.038Z,66.00
2023-03-19T05:43:55.492Z,66.10
2023-03-19T05:46:26.490Z,66.30
2023-03-19T05:48:56.974Z,66.20
2023-03-19T05:51:26.877Z,66.40
2023-03-19T05:53:57.465Z,66.30
2023-03-19T05:56:25.869Z,66.30
2023-03-19T05:58:56.751Z,66.50
2023-03-19T06:01:27.290Z,66.40
2023-03-19T06:03:56.470Z,66.40
2023-03-19T06:06:26.804Z,66.50
2023-03-19T06:08:54.982Z,66.60
2023-03-19T06:11:27.352Z,66.60
2023-03-19T06:13:59.231Z,66.50
2023-03-19T06:16:28.943Z,66.50
2023-03-19T06:18:57.402Z,66.50
2023-03-19T06:21:29.873Z,66.50
2023-03-19T06:24:00.255Z,66.50
2023-03-19T06:26:31.252Z,66.60
2023-03-19T06:28:59.645Z,66.70
2023-03-19T06:31:29.128Z,66.70
2023-03-19T06:33:57.530Z,66.70
2023-03-19T06:36:26.160Z,66.50
2023-03-19T06:38:56.920Z,66.60
2023-03-19T06:41:26.579Z,66.70
2023-03-19T06:43:56.198Z,66.90
2023-03-19T06:46:28.341Z,67.10
2023-03-19T06:48:57.704Z,67.10
2023-03-19T06:51:28.012Z,67.20
2023-03-19T06:53:56.696Z,67.20
2023-03-19T06:56:27.629Z,67.20
2023-03-19T06:58:57.316Z,67.10
2023-03-19T07:01:27.731Z,67.10
2023-03-19T07:03:57.991Z,66.80
2023-03-19T07:06:30.146Z,66.60
2023-03-19T07:09:00.010Z,66.30
2023-03-19T07:11:28.351Z,66.20
2023-03-19T07:13:57.823Z,66.10
2023-03-19T07:16:26.196Z,65.90
2023-03-19T07:18:58.815Z,65.80
2023-03-19T07:21:27.041Z,65.70
2023-03-19T07:23:55.246Z,65.40
2023-03-19T07:26:27.737Z,65.30
2023-03-19T07:28:58.792Z,65.00
2023-03-19T07:31:27.059Z,64.60
2023-03-19T07:33:57.068Z,64.30
2023-03-19T07:36:27.566Z,64.10
2023-03-19T07:38:55.862Z,63.90
2023-03-19T07:41:24.074Z,63.60
2023-03-19T07:43:52.545Z,63.60
2023-03-19T07:46:22.622Z,63.60
2023-03-19T07:48:54.438Z,63.50
2023-03-19T07:51:23.884Z,63.20
2023-03-19T07:53:53.105Z,63.00
2023-03-19T07:56:22.836Z,62.90
2023-03-19T07:58:51.738Z,62.70
2023-03-19T08:01:32.290Z,62.30
2023-03-19T08:04:01.023Z,61.80
2023-03-19T08:06:30.839Z,61.60
2023-03-19T08:08:58.942Z,61.10
2023-03-19T08:11:36.028Z,60.80
2023-03-19T08:14:05.681Z,60.30
2023-03-19T08:16:38.473Z,60.10
2023-03-19T08:19:06.648Z,59.80
2023-03-19T08:21:35.806Z,59.70
2023-03-19T08:24:05.709Z,59.70
2023-03-19T08:26:34.992Z,59.70
2023-03-19T08:29:05.485Z,59.60
2023-03-19T08:31:35.997Z,59.50
2023-03-19T08:34:07.319Z,59.30
2023-03-19T08:36:35.493Z,59.20
2023-03-19T08:39:04.281Z,58.80
2023-03-19T08:41:34.692Z,58.10
2023-03-19T08:44:05.128Z,57.50
2023-03-19T08:46:33.846Z,57.10
2023-03-19T08:49:05.485Z,57.00
2023-03-19T08:51:34.866Z,56.80
2023-03-19T08:54:05.324Z,56.60
2023-03-19T08:56:36.113Z,56.60
2023-03-19T08:59:05.322Z,56.40
2023-03-19T09:01:34.528Z,56.30
2023-03-19T09:04:04.387Z,56.30
2023-03-19T09:06:33.897Z,56.30
2023-03-19T09:09:04.389Z,56.00
2023-03-19T09:11:32.540Z,55.40
2023-03-19T09:14:00.710Z,55.00
2023-03-19T09:16:30.326Z,55.00
2023-03-19T09:19:00.164Z,55.00
2023-03-19T09:21:49.085Z,54.70
2023-03-19T09:24:18.840Z,54.20
2023-03-19T09:26:47.416Z,53.70
2023-03-19T09:29:15.587Z,53.80
2023-03-19T09:31:46.716Z,53.60
2023-03-19T09:34:16.508Z,53.50
2023-03-19T09:36:47.130Z,53.30
2023-03-19T09:39:15.207Z,53.20
2023-03-19T09:42:03.984Z,52.70
2023-03-19T09:44:36.123Z,52.70
2023-03-19T09:47:23.558Z,52.60
2023-03-19T09:49:54.653Z,52.70
2023-03-19T09:52:45.375Z,52.70
2023-03-19T09:55:27.049Z,52.30
2023-03-19T09:57:57.629Z,52.20
2023-03-19T10:00:30.323Z,52.10
2023-03-19T10:03:09.251Z,51.70
2023-03-19T10:05:47.404Z,51.80
2023-03-19T10:08:39.410Z,51.50
2023-03-19T10:11:25.564Z,51.60
2023-03-19T10:14:03.875Z,51.00
2023-03-19T10:16:39.326Z,50.50
2023-03-19T10:19:07.840Z,50.40
2023-03-19T10:21:42.482Z,50.20
2023-03-19T10:24:16.624Z,50.10
2023-03-19T10:26:47.382Z,50.30
2023-03-19T10:29:17.678Z,50.30
2023-03-19T10:31:53.323Z,50.50
2023-03-19T10:34:32.812Z,50.30
2023-03-19T10:37:04.736Z,50.20
2023-03-19T10:39:38.890Z,50.30
2023-03-19T10:42:22.445Z,50.50
2023-03-19T10:44:58.431Z,50.40
2023-03-19T10:47:35.923Z,50.60
2023-03-19T10:50:07.593Z,50.90
2023-03-19T10:52:38.940Z,51.60
2023-03-19T10:55:17.889Z,51.50
2023-03-19T10:57:51.804Z,51.60
2023-03-19T11:00:28.333Z,51.60
2023-03-19T11:02:59.230Z,51.70
2023-03-19T11:05:32.620Z,51.70
2023-03-19T11:08:04.483Z,51.40
2023-03-19T11:10:37.700Z,51.60
2023-03-19T11:13:08.536Z,51.40
2023-03-19T11:15:40.178Z,51.70
2023-03-19T11:18:18.054Z,51.70
2023-03-19T11:20:54.634Z,51.60
2023-03-19T11:23:24.230Z,51.00
2023-03-19T11:25:56.913Z,51.50
2023-03-19T11:28:32.911Z,51.40
2023-03-19T11:31:15.661Z,51.90
2023-03-19T11:34:00.460Z,52.00
2023-03-19T11:36:34.258Z,51.90
2023-03-19T11:39:19.958Z,52.10
2023-03-19T11:42:07.671Z,52.30
2023-03-19T11:44:42.382Z,51.70
2023-03-19T11:47:26.728Z,51.70
2023-03-19T11:50:05.307Z,51.40
2023-03-19T11:52:39.324Z,51.90
2023-03-19T11:55:26.262Z,51.50
2023-03-19T11:58:25.734Z,51.10
2023-03-19T12:00:56.255Z,51.10
2023-03-19T12:03:56.105Z,51.20
2023-03-19T12:06:37.508Z,51.30
2023-03-19T12:09:16.939Z,51.20
2023-03-19T12:11:54.576Z,51.40
2023-03-19T12:14:34.649Z,51.10
2023-03-19T12:17:19.459Z,51.20
2023-03-19T12:20:25.311Z,50.90
2023-03-19T12:23:06.572Z,50.50
2023-03-19T12:26:08.095Z,50.60
2023-03-19T12:28:45.683Z,50.40
2023-03-19T12:31:43.449Z,50.40
2023-03-19T12:34:51.181Z,49.90
2023-03-19T12:37:29.785Z,49.70
2023-03-19T12:40:17.934Z,50.90
2023-03-19T12:42:56.156Z,50.80
2023-03-19T12:45:40.771Z,51.00
2023-03-19T12:48:14.057Z,51.20
2023-03-19T12:50:46.963Z,51.20
2023-03-19T12:53:27.814Z,51.50
2023-03-19T12:56:01.627Z,52.00
2023-03-19T12:58:41.133Z,52.20
2023-03-19T13:01:14.627Z,52.50
2023-03-19T13:03:54.102Z,52.20
2023-03-19T13:06:27.171Z,52.70
2023-03-19T13:09:03.194Z,53.00
2023-03-19T13:11:39.535Z,53.80
2023-03-19T13:14:15.500Z,53.10
2023-03-19T13:16:50.206Z,53.30
2023-03-19T13:19:26.552Z,53.40
2023-03-19T13:21:59.520Z,53.60
2023-03-19T13:24:30.355Z,53.60
2023-03-19T13:27:01.231Z,53.80
2023-03-19T13:29:30.816Z,54.20
2023-03-19T13:32:03.490Z,53.90
2023-03-19T13:34:36.324Z,54.00
2023-03-19T13:37:13.088Z,53.80
2023-03-19T13:39:42.193Z,54.00
2023-03-19T13:42:23.950Z,54.20
2023-03-19T13:44:55.149Z,54.30
2023-03-19T13:47:42.405Z,54.40
2023-03-19T13:50:28.869Z,53.80
2023-03-19T13:53:22.558Z,53.70
2023-03-19T13:55:54.676Z,53.40
2023-03-19T13:58:39.753Z,53.70
2023-03-19T14:01:11.770Z,53.90
2023-03-19T14:03:54.335Z,54.00
2023-03-19T14:06:41.053Z,53.80
2023-03-19T14:09:31.722Z,53.90
2023-03-19T14:12:11.713Z,54.30
2023-03-19T14:14:45.236Z,54.30
2023-03-19T14:17:16.560Z,55.00
2023-03-19T14:19:44.728Z,55.40
2023-03-19T14:22:21.965Z,55.20
2023-03-19T14:24:58.265Z,55.20
2023-03-19T14:27:33.087Z,55.40
2023-03-19T14:30:09.597Z,55.50
2023-03-19T14:32:41.122Z,55.40
2023-03-19T14:35:15.867Z,56.10
2023-03-19T14:37:50.266Z,56.30
2023-03-19T14:40:21.368Z,56.70
2023-03-19T14:42:59.907Z,56.90
2023-03-19T14:45:46.389Z,57.10
2023-03-19T14:48:25.283Z,57.20
2023-03-19T14:51:19.197Z,57.20
2023-03-19T14:53:54.415Z,57.40
2023-03-19T14:56:26.590Z,57.00
2023-03-19T14:58:56.085Z,57.30
2023-03-19T15:01:27.058Z,57.50
2023-03-19T15:03:57.452Z,57.60
2023-03-19T15:06:31.513Z,58.00
2023-03-19T15:09:02.536Z,58.50
2023-03-19T15:11:51.873Z,59.10
2023-03-19T15:14:44.126Z,60.00
2023-03-19T15:17:22.637Z,60.70
2023-03-19T15:19:51.262Z,61.20
2023-03-19T15:22:23.476Z,61.10
2023-03-19T15:24:53.069Z,61.30
2023-03-19T15:27:22.583Z,61.80
2023-03-19T15:29:51.975Z,61.90
2023-03-19T15:32:54.423Z,62.20
2023-03-19T15:35:30.542Z,62.50
2023-03-19T15:38:03.050Z,62.60
2023-03-19T15:40:40.261Z,62.40
2023-03-19T15:43:15.133Z,61.80
2023-03-19T15:45:51.729Z,61.80
2023-03-19T15:48:23.847Z,62.20
2023-03-19T15:50:56.264Z,62.50
2023-03-19T15:53:27.703Z,62.50
2023-03-19T15:55:57.407Z,62.70
2023-03-19T15:58:28.945Z,63.00
2023-03-19T16:00:58.311Z,63.30
2023-03-19T16:03:29.926Z,63.50
2023-03-19T16:06:03.603Z,63.70
2023-03-19T16:08:32.464Z,63.80
2023-03-19T16:11:31.391Z,64.00
2023-03-19T16:14:00.464Z,64.20
2023-03-19T16:16:31.458Z,64.50
2023-03-19T16:19:00.052Z,64.50
2023-03-19T16:21:36.215Z,64.30
2023-03-19T16:24:07.899Z,64.60
2023-03-19T16:26:41.308Z,64.20
2023-03-19T16:29:20.942Z,64.10
2023-03-19T16:31:52.883Z,64.00
2023-03-19T16:34:28.911Z,63.90
2023-03-19T16:36:58.284Z,64.10
2023-03-19T16:39:34.178Z,64.50
2023-03-19T16:42:31.768Z,64.50
2023-03-19T16:45:04.267Z,64.90
2023-03-19T16:47:32.587Z,65.70
2023-03-19T16:50:00.775Z,66.30
2023-03-19T16:52:28.937Z,66.60
2023-03-19T16:54:59.366Z,66.80
2023-03-19T16:57:28.320Z,67.10
2023-03-19T16:59:58.938Z,67.30
2023-03-19T17:02:28.347Z,67.40
2023-03-19T17:04:56.540Z,67.50
2023-03-19T17:07:24.764Z,67.50
2023-03-19T17:09:53.121Z,67.60
2023-03-19T17:12:21.330Z,67.60
2023-03-19T17:14:54.089Z,67.60
2023-03-19T17:17:23.739Z,67.70
2023-03-19T17:19:52.550Z,67.90
2023-03-19T17:22:20.874Z,67.90
2023-03-19T17:24:49.325Z,68.10
2023-03-19T17:27:17.448Z,68.20
2023-03-19T17:29:45.804Z,68.50
2023-03-19T17:32:19.086Z,68.70
2023-03-19T17:34:51.126Z,68.70
2023-03-19T17:37:19.267Z,68.80
2023-03-19T17:39:47.481Z,68.90
2023-03-19T17:42:20.259Z,68.90
2023-03-19T17:44:48.541Z,68.90
2023-03-19T17:47:18.749Z,69.30
2023-03-19T17:49:48.899Z,69.60
2023-03-19T17:52:18.599Z,69.90
2023-03-19T17:54:49.558Z,70.10
2023-03-19T17:57:19.319Z,70.40
2023-03-19T17:59:47.520Z,70.60
2023-03-19T18:02:28.652Z,70.80
2023-03-19T18:04:58.629Z,70.80
2023-03-19T18:07:28.809Z,70.70
2023-03-19T18:09:57.002Z,70.60
2023-03-19T18:12:25.137Z,70.60
2023-03-19T18:14:53.306Z,70.50
2023-03-19T18:17:21.518Z,70.30
2023-03-19T18:19:52.434Z,70.30
2023-03-19T18:22:22.345Z,70.40
2023-03-19T18:24:50.575Z,70.40
2023-03-19T18:27:19.023Z,70.40
2023-03-19T18:29:47.179Z,70.60
2023-03-19T18:32:18.575Z,70.60
2023-03-19T18:34:47.298Z,70.70
2023-03-19T18:37:18.140Z,70.70
2023-03-19T18:39:48.007Z,70.80
2023-03-19T18:42:16.747Z,70.90
2023-03-19T18:44:44.902Z,71.30
2023-03-19T18:47:15.572Z,71.70
2023-03-19T18:49:44.781Z,72.30
2023-03-19T18:52:19.636Z,72.90
2023-03-19T18:54:49.435Z,73.10
2023-03-19T18:57:18.218Z,73.10
2023-03-19T18:59:47.013Z,73.60
2023-03-19T19:02:29.649Z,73.40
2023-03-19T19:04:58.275Z,73.40
2023-03-19T19:07:26.611Z,73.50
2023-03-19T19:09:56.200Z,73.60
2023-03-19T19:12:26.112Z,73.70
2023-03-19T19:14:54.434Z,73.70
2023-03-19T19:17:24.648Z,74.10
2023-03-19T19:19:52.802Z,74.30
2023-03-19T19:22:21.232Z,74.40
2023-03-19T19:24:49.440Z,74.60
2023-03-19T19:27:21.527Z,74.80
2023-03-19T19:29:50.699Z,75.10
2023-03-19T19:32:22.740Z,75.20
2023-03-19T19:34:51.759Z,75.40
2023-03-19T19:37:21.231Z,75.50
2023-03-19T19:39:50.004Z,75.70
2023-03-19T19:42:22.442Z,76.00
2023-03-19T19:44:54.872Z,76.10
2023-03-19T19:47:23.243Z,76.10
2023-03-19T19:49:51.592Z,76.30
2023-03-19T19:52:20.784Z,76.30
2023-03-19T19:54:49.215Z,76.40
2023-03-19T19:57:21.968Z,76.60
2023-03-19T19:59:51.225Z,76.70
2023-03-19T20:02:24.172Z,76.80
2023-03-19T20:04:52.481Z,77.00
2023-03-19T20:07:20.697Z,77.10
2023-03-19T20:09:49.126Z,77.00
2023-03-19T20:12:22.790Z,77.20
2023-03-19T20:14:52.105Z,77.20
2023-03-19T20:17:21.990Z,77.10
2023-03-19T20:19:50.476Z,77.00
2023-03-19T20:22:18.681Z,76.80
2023-03-19T20:24:50.287Z,76.90
2023-03-19T20:27:22.702Z,76.90
2023-03-19T20:29:53.780Z,76.80
2023-03-19T20:32:29.656Z,77.00
2023-03-19T20:34:57.881Z,77.00
2023-03-19T20:37:26.084Z,77.10
2023-03-19T20:39:54.262Z,77.40
2023-03-19T20:42:24.249Z,77.50
2023-03-19T20:44:58.082Z,77.40
2023-03-19T20:47:26.726Z,77.60
2023-03-19T20:49:54.906Z,77.70
2023-03-19T20:52:23.009Z,77.80
2023-03-19T20:54:51.190Z,77.80
2023-03-19T20:57:24.139Z,78.00
2023-03-19T20:59:53.633Z,78.00
2023-03-19T21:02:24.496Z,77.90
2023-03-19T21:04:53.216Z,78.00
2023-03-19T21:07:29.362Z,78.30
2023-03-19T21:09:58.161Z,78.40
2023-03-19T21:12:31.622Z,78.40
2023-03-19T21:15:02.043Z,78.50
2023-03-19T21:17:30.558Z,78.60
2023-03-19T21:19:58.717Z,78.70
2023-03-19T21:22:29.836Z,78.90
2023-03-19T21:25:04.437Z,79.00
2023-03-19T21:27:35.084Z,79.10
2023-03-19T21:30:05.619Z,78.90
2023-03-19T21:32:33.894Z,78.70
2023-03-19T21:35:02.419Z,78.90
2023-03-19T21:37:30.612Z,79.30
2023-03-19T21:39:58.723Z,79.50
2023-03-19T21:42:27.492Z,79.90
2023-03-19T21:45:00.364Z,79.80
2023-03-19T21:47:29.981Z,79.90
2023-03-19T21:50:00.382Z,79.90
2023-03-19T21:52:28.769Z,79.70
2023-03-19T21:54:57.037Z,79.70
2023-03-19T21:57:25.914Z,79.70
2023-03-19T21:59:54.022Z,79.70
2023-03-19T22:02:42.444Z,79.90
2023-03-19T22:05:26.213Z,79.80
2023-03-19T22:07:55.069Z,79.60
2023-03-19T22:10:24.855Z,79.80
2023-03-19T22:12:53.002Z,79.90
2023-03-19T22:15:25.731Z,80.00
2023-03-19T22:17:55.262Z,79.90
2023-03-19T22:20:25.745Z,79.90
2023-03-19T22:22:54.055Z,79.80
2023-03-19T22:25:23.163Z,79.90
2023-03-19T22:27:52.632Z,79.90
2023-03-19T22:30:26.718Z,79.90
2023-03-19T22:32:58.266Z,79.80
2023-03-19T22:35:27.024Z,79.90
2023-03-19T22:37:55.358Z,79.90
2023-03-19T22:40:23.557Z,79.90
2023-03-19T22:42:51.817Z,79.80
2023-03-19T22:45:24.494Z,79.80
2023-03-19T22:47:53.151Z,79.80
2023-03-19T22:50:26.308Z,79.80
2023-03-19T22:52:54.847Z,79.90
2023-03-19T22:55:23.401Z,79.90
2023-03-19T22:57:51.743Z,80.00
2023-03-19T23:00:23.700Z,80.00
2023-03-19T23:02:57.477Z,80.00
2023-03-19T23:05:34.400Z,80.00
2023-03-19T23:08:05.993Z,80.00
2023-03-19T23:10:35.971Z,80.00
2023-03-19T23:13:04.166Z,80.00
2023-03-19T23:15:32.944Z,80.00
2023-03-19T23:18:02.300Z,80.00
2023-03-19T23:20:33.858Z,80.00
2023-03-19T23:23:02.469Z,80.00
2023-03-19T23:25:30.950Z,80.00
2023-03-19T23:28:02.539Z,79.90
2023-03-19T23:30:32.400Z,79.90
2023-03-19T23:33:03.296Z,79.90
2023-03-19T23:35:35.051Z,79.90
2023-03-19T23:38:04.172Z,80.00
2023-03-19T23:40:34.235Z,80.00
2023-03-19T23:43:03.397Z,80.00
2023-03-19T23:45:37.814Z,79.90
2023-03-19T23:48:07.838Z,79.90
2023-03-19T23:50:37.378Z,79.90
2023-03-19T23:53:05.526Z,79.90
2023-03-19T23:55:34.711Z,79.90
2023-03-19T23:58:05.855Z,80.00
